Ackley, Iowa
Current Conditions -  °F | °C
As of 5:15 AM on Friday 28 Nov 2014 (Local Time) from KIFA Reporting Station
Overcast Overcast  
Wind Chill:   Ceiling: 12000
Heat Index: 16°   Visibility: 7mi
Dew Point: 10°   Wind: 16mph
Humidity: 79%   Direction: 130°SE
Pressure: 30.04"   Gusts: NA
Location:  42.55°N, 93.05°W
Report Text: KIFA 281115Z AUTO 13014KT 7SM OVC120 M09/M12 A3004 RMK AO2 T10901121
Loading
Personal Weather Stations






























Interactive Weather Map New forecast layout! Learn more

10-Day Weather Forecast

Advertisements
Track Severe Weather on mobile